sensor_id;sensor_type;location;lat;lon;timestamp;P1;durP1;ratioP1;P2;durP2;ratioP2
65552;SDS011;52465;51.560;14.368;2022-09-09T00:06:52;0.60;;;0.60;;
65552;SDS011;52465;51.560;14.368;2022-09-09T00:09:29;0.80;;;0.80;;
65552;SDS011;52465;51.560;14.368;2022-09-09T00:14:51;0.75;;;0.75;;
65552;SDS011;52465;51.560;14.368;2022-09-09T00:17:24;0.63;;;0.63;;
65552;SDS011;52465;51.560;14.368;2022-09-09T00:20:03;0.60;;;0.60;;
65552;SDS011;52465;51.560;14.368;2022-09-09T00:22:40;1.00;;;1.00;;
65552;SDS011;52465;51.560;14.368;2022-09-09T00:25:20;1.15;;;0.50;;
65552;SDS011;52465;51.560;14.368;2022-09-09T00:27:52;0.68;;;0.68;;
65552;SDS011;52465;51.560;14.368;2022-09-09T00:32:53;1.23;;;0.70;;
65552;SDS011;52465;51.560;14.368;2022-09-09T00:35:33;0.68;;;0.60;;
65552;SDS011;52465;51.560;14.368;2022-09-09T00:38:03;0.93;;;0.80;;
65552;SDS011;52465;51.560;14.368;2022-09-09T00:40:38;0.60;;;0.60;;
65552;SDS011;52465;51.560;14.368;2022-09-09T00:43:27;0.60;;;0.60;;
65552;SDS011;52465;51.560;14.368;2022-09-09T00:46:14;0.80;;;0.70;;
65552;SDS011;52465;51.560;14.368;2022-09-09T00:51:42;0.55;;;0.55;;
65552;SDS011;52465;51.560;14.368;2022-09-09T00:54:34;1.13;;;0.68;;
65552;SDS011;52465;51.560;14.368;2022-09-09T00:59:50;0.70;;;0.70;;
65552;SDS011;52465;51.560;14.368;2022-09-09T01:02:28;0.80;;;0.80;;
65552;SDS011;52465;51.560;14.368;2022-09-09T01:05:00;0.65;;;0.65;;
65552;SDS011;52465;51.560;14.368;2022-09-09T01:07:32;0.90;;;0.70;;
65552;SDS011;52465;51.560;14.368;2022-09-09T01:09:58;0.70;;;0.70;;
65552;SDS011;52465;51.560;14.368;2022-09-09T01:12:28;0.70;;;0.70;;
65552;SDS011;52465;51.560;14.368;2022-09-09T01:15:08;1.10;;;0.68;;
65552;SDS011;52465;51.560;14.368;2022-09-09T01:17:46;0.70;;;0.70;;
65552;SDS011;52465;51.560;14.368;2022-09-09T01:20:22;0.60;;;0.60;;
65552;SDS011;52465;51.560;14.368;2022-09-09T01:22:57;1.00;;;0.68;;
65552;SDS011;52465;51.560;14.368;2022-09-09T01:28:29;0.65;;;0.65;;
65552;SDS011;52465;51.560;14.368;2022-09-09T01:30:57;0.60;;;0.60;;
65552;SDS011;52465;51.560;14.368;2022-09-09T01:33:23;0.70;;;0.70;;
65552;SDS011;52465;51.560;14.368;2022-09-09T01:38:35;0.60;;;0.60;;
65552;SDS011;52465;51.560;14.368;2022-09-09T01:41:01;0.70;;;0.70;;
65552;SDS011;52465;51.560;14.368;2022-09-09T01:43:27;0.77;;;0.70;;
65552;SDS011;52465;51.560;14.368;2022-09-09T01:45:53;0.77;;;0.77;;
65552;SDS011;52465;51.560;14.368;2022-09-09T01:48:21;1.20;;;0.50;;
65552;SDS011;52465;51.560;14.368;2022-09-09T01:50:48;0.70;;;0.70;;
65552;SDS011;52465;51.560;14.368;2022-09-09T01:53:14;0.63;;;0.63;;
65552;SDS011;52465;51.560;14.368;2022-09-09T01:55:42;0.65;;;0.65;;
65552;SDS011;52465;51.560;14.368;2022-09-09T01:58:31;1.05;;;0.77;;
65552;SDS011;52465;51.560;14.368;2022-09-09T02:03:44;0.63;;;0.63;;
65552;SDS011;52465;51.560;14.368;2022-09-09T02:06:27;0.65;;;0.65;;
65552;SDS011;52465;51.560;14.368;2022-09-09T02:09:04;1.77;;;0.70;;
65552;SDS011;52465;51.560;14.368;2022-09-09T02:11:31;0.90;;;0.75;;
65552;SDS011;52465;51.560;14.368;2022-09-09T02:14:08;0.95;;;0.65;;
65552;SDS011;52465;51.560;14.368;2022-09-09T02:16:40;1.02;;;0.75;;
65552;SDS011;52465;51.560;14.368;2022-09-09T02:21:50;0.60;;;0.60;;
65552;SDS011;52465;51.560;14.368;2022-09-09T02:24:18;1.02;;;0.70;;
65552;SDS011;52465;51.560;14.368;2022-09-09T02:26:44;0.70;;;0.70;;
65552;SDS011;52465;51.560;14.368;2022-09-09T02:29:14;0.65;;;0.65;;
65552;SDS011;52465;51.560;14.368;2022-09-09T02:31:44;0.77;;;0.77;;
65552;SDS011;52465;51.560;14.368;2022-09-09T02:34:12;0.70;;;0.70;;
65552;SDS011;52465;51.560;14.368;2022-09-09T02:36:40;0.80;;;0.75;;
65552;SDS011;52465;51.560;14.368;2022-09-09T02:39:08;0.73;;;0.73;;
65552;SDS011;52465;51.560;14.368;2022-09-09T02:41:37;0.70;;;0.70;;
65552;SDS011;52465;51.560;14.368;2022-09-09T02:44:05;0.80;;;0.80;;
65552;SDS011;52465;51.560;14.368;2022-09-09T02:52:15;1.27;;;0.80;;
65552;SDS011;52465;51.560;14.368;2022-09-09T02:54:43;0.70;;;0.70;;
65552;SDS011;52465;51.560;14.368;2022-09-09T02:57:12;0.80;;;0.80;;
65552;SDS011;52465;51.560;14.368;2022-09-09T02:59:41;0.70;;;0.70;;
65552;SDS011;52465;51.560;14.368;2022-09-09T03:02:09;0.73;;;0.73;;
65552;SDS011;52465;51.560;14.368;2022-09-09T03:04:35;0.85;;;0.80;;
65552;SDS011;52465;51.560;14.368;2022-09-09T03:07:00;0.93;;;0.80;;
65552;SDS011;52465;51.560;14.368;2022-09-09T03:09:25;1.75;;;0.73;;
65552;SDS011;52465;51.560;14.368;2022-09-09T03:11:51;1.13;;;0.80;;
65552;SDS011;52465;51.560;14.368;2022-09-09T03:14:17;1.08;;;0.63;;
65552;SDS011;52465;51.560;14.368;2022-09-09T03:16:46;0.85;;;0.70;;
65552;SDS011;52465;51.560;14.368;2022-09-09T03:19:11;1.40;;;0.60;;
65552;SDS011;52465;51.560;14.368;2022-09-09T03:21:37;1.27;;;0.70;;
65552;SDS011;52465;51.560;14.368;2022-09-09T03:24:02;1.45;;;0.80;;
65552;SDS011;52465;51.560;14.368;2022-09-09T03:26:28;0.60;;;0.60;;
65552;SDS011;52465;51.560;14.368;2022-09-09T03:28:55;0.60;;;0.60;;
65552;SDS011;52465;51.560;14.368;2022-09-09T03:31:20;1.80;;;0.80;;
65552;SDS011;52465;51.560;14.368;2022-09-09T03:33:46;2.63;;;0.90;;
65552;SDS011;52465;51.560;14.368;2022-09-09T03:36:11;0.80;;;0.80;;
65552;SDS011;52465;51.560;14.368;2022-09-09T03:38:36;2.40;;;1.10;;
65552;SDS011;52465;51.560;14.368;2022-09-09T03:41:02;1.20;;;1.10;;
65552;SDS011;52465;51.560;14.368;2022-09-09T03:43:27;1.00;;;1.00;;
65552;SDS011;52465;51.560;14.368;2022-09-09T03:45:53;3.08;;;1.10;;
65552;SDS011;52465;51.560;14.368;2022-09-09T03:48:22;1.70;;;1.00;;
65552;SDS011;52465;51.560;14.368;2022-09-09T03:50:48;2.90;;;1.00;;
65552;SDS011;52465;51.560;14.368;2022-09-09T03:53:16;1.20;;;1.08;;
65552;SDS011;52465;51.560;14.368;2022-09-09T03:55:49;3.17;;;0.93;;
65552;SDS011;52465;51.560;14.368;2022-09-09T03:58:19;1.48;;;0.95;;
65552;SDS011;52465;51.560;14.368;2022-09-09T04:00:54;1.20;;;1.00;;
65552;SDS011;52465;51.560;14.368;2022-09-09T04:03:21;1.58;;;0.90;;
65552;SDS011;52465;51.560;14.368;2022-09-09T04:05:50;0.98;;;0.95;;
65552;SDS011;52465;51.560;14.368;2022-09-09T04:08:16;2.60;;;1.02;;
65552;SDS011;52465;51.560;14.368;2022-09-09T04:10:41;1.38;;;0.93;;
65552;SDS011;52465;51.560;14.368;2022-09-09T04:13:07;2.47;;;1.05;;
65552;SDS011;52465;51.560;14.368;2022-09-09T04:15:32;3.50;;;1.10;;
65552;SDS011;52465;51.560;14.368;2022-09-09T04:17:58;2.15;;;1.27;;
65552;SDS011;52465;51.560;14.368;2022-09-09T04:20:23;0.80;;;0.80;;
65552;SDS011;52465;51.560;14.368;2022-09-09T04:22:49;1.27;;;1.00;;
65552;SDS011;52465;51.560;14.368;2022-09-09T04:25:14;1.67;;;1.00;;
65552;SDS011;52465;51.560;14.368;2022-09-09T04:27:40;2.05;;;1.08;;
65552;SDS011;52465;51.560;14.368;2022-09-09T04:30:05;3.22;;;0.90;;
65552;SDS011;52465;51.560;14.368;2022-09-09T04:32:32;1.75;;;0.90;;
65552;SDS011;52465;51.560;14.368;2022-09-09T04:34:58;1.15;;;0.93;;
65552;SDS011;52465;51.560;14.368;2022-09-09T04:37:23;2.45;;;0.88;;
65552;SDS011;52465;51.560;14.368;2022-09-09T04:39:49;4.05;;;1.00;;
65552;SDS011;52465;51.560;14.368;2022-09-09T04:42:15;1.77;;;1.10;;
65552;SDS011;52465;51.560;14.368;2022-09-09T04:44:41;3.28;;;1.10;;
65552;SDS011;52465;51.560;14.368;2022-09-09T04:47:06;0.80;;;0.80;;
65552;SDS011;52465;51.560;14.368;2022-09-09T04:49:32;1.63;;;1.00;;
65552;SDS011;52465;51.560;14.368;2022-09-09T04:51:57;1.30;;;0.88;;
65552;SDS011;52465;51.560;14.368;2022-09-09T04:54:22;1.08;;;0.95;;
65552;SDS011;52465;51.560;14.368;2022-09-09T04:56:49;1.25;;;0.98;;
65552;SDS011;52465;51.560;14.368;2022-09-09T04:59:15;1.20;;;0.98;;
65552;SDS011;52465;51.560;14.368;2022-09-09T05:01:41;1.15;;;0.90;;
65552;SDS011;52465;51.560;14.368;2022-09-09T05:04:06;2.78;;;1.00;;
65552;SDS011;52465;51.560;14.368;2022-09-09T05:06:31;2.00;;;1.00;;
65552;SDS011;52465;51.560;14.368;2022-09-09T05:08:57;1.15;;;1.00;;
65552;SDS011;52465;51.560;14.368;2022-09-09T05:11:24;1.45;;;0.85;;
65552;SDS011;52465;51.560;14.368;2022-09-09T05:13:52;2.15;;;1.00;;
65552;SDS011;52465;51.560;14.368;2022-09-09T05:16:19;0.77;;;0.77;;
65552;SDS011;52465;51.560;14.368;2022-09-09T05:18:45;0.85;;;0.80;;
65552;SDS011;52465;51.560;14.368;2022-09-09T05:21:11;1.27;;;1.00;;
65552;SDS011;52465;51.560;14.368;2022-09-09T05:23:38;1.33;;;0.90;;
65552;SDS011;52465;51.560;14.368;2022-09-09T05:26:04;1.15;;;0.80;;
65552;SDS011;52465;51.560;14.368;2022-09-09T05:28:32;0.95;;;0.90;;
65552;SDS011;52465;51.560;14.368;2022-09-09T05:31:00;1.10;;;1.00;;
65552;SDS011;52465;51.560;14.368;2022-09-09T05:33:34;1.20;;;1.08;;
65552;SDS011;52465;51.560;14.368;2022-09-09T05:36:01;1.52;;;0.90;;
65552;SDS011;52465;51.560;14.368;2022-09-09T05:38:29;2.00;;;1.00;;
65552;SDS011;52465;51.560;14.368;2022-09-09T05:40:55;1.67;;;0.70;;
65552;SDS011;52465;51.560;14.368;2022-09-09T05:43:21;1.10;;;0.90;;
65552;SDS011;52465;51.560;14.368;2022-09-09T05:45:47;1.35;;;1.00;;
65552;SDS011;52465;51.560;14.368;2022-09-09T05:48:16;1.17;;;0.90;;
65552;SDS011;52465;51.560;14.368;2022-09-09T05:50:42;1.05;;;0.90;;
65552;SDS011;52465;51.560;14.368;2022-09-09T05:53:08;1.00;;;0.95;;
65552;SDS011;52465;51.560;14.368;2022-09-09T05:55:35;1.15;;;0.95;;
65552;SDS011;52465;51.560;14.368;2022-09-09T05:58:00;1.70;;;0.90;;
65552;SDS011;52465;51.560;14.368;2022-09-09T06:00:26;1.20;;;1.10;;
65552;SDS011;52465;51.560;14.368;2022-09-09T06:02:51;1.20;;;0.88;;
65552;SDS011;52465;51.560;14.368;2022-09-09T06:05:17;2.03;;;0.95;;
65552;SDS011;52465;51.560;14.368;2022-09-09T06:07:43;2.50;;;0.90;;
65552;SDS011;52465;51.560;14.368;2022-09-09T06:10:09;1.67;;;0.90;;
65552;SDS011;52465;51.560;14.368;2022-09-09T06:12:35;0.82;;;0.80;;
65552;SDS011;52465;51.560;14.368;2022-09-09T06:15:01;1.05;;;0.90;;
65552;SDS011;52465;51.560;14.368;2022-09-09T06:17:26;0.90;;;0.80;;
65552;SDS011;52465;51.560;14.368;2022-09-09T06:19:51;1.30;;;0.77;;
65552;SDS011;52465;51.560;14.368;2022-09-09T06:22:18;0.93;;;0.70;;
65552;SDS011;52465;51.560;14.368;2022-09-09T06:24:43;1.95;;;1.00;;
65552;SDS011;52465;51.560;14.368;2022-09-09T06:27:09;1.40;;;0.90;;
65552;SDS011;52465;51.560;14.368;2022-09-09T06:29:35;1.15;;;0.80;;
65552;SDS011;52465;51.560;14.368;2022-09-09T06:32:01;0.80;;;0.80;;
65552;SDS011;52465;51.560;14.368;2022-09-09T06:34:30;1.27;;;1.00;;
65552;SDS011;52465;51.560;14.368;2022-09-09T06:36:55;1.13;;;0.98;;
65552;SDS011;52465;51.560;14.368;2022-09-09T06:39:22;1.80;;;1.23;;
65552;SDS011;52465;51.560;14.368;2022-09-09T06:41:47;1.08;;;0.80;;
65552;SDS011;52465;51.560;14.368;2022-09-09T06:44:13;1.13;;;0.88;;
65552;SDS011;52465;51.560;14.368;2022-09-09T06:46:40;0.80;;;0.80;;
65552;SDS011;52465;51.560;14.368;2022-09-09T06:49:05;0.90;;;0.80;;
65552;SDS011;52465;51.560;14.368;2022-09-09T06:51:33;0.90;;;0.85;;
65552;SDS011;52465;51.560;14.368;2022-09-09T06:54:00;0.93;;;0.80;;
65552;SDS011;52465;51.560;14.368;2022-09-09T06:56:31;1.15;;;0.90;;
65552;SDS011;52465;51.560;14.368;2022-09-09T06:58:59;1.15;;;0.88;;
65552;SDS011;52465;51.560;14.368;2022-09-09T07:01:30;0.70;;;0.70;;
65552;SDS011;52465;51.560;14.368;2022-09-09T07:04:00;0.60;;;0.60;;
65552;SDS011;52465;51.560;14.368;2022-09-09T07:06:27;0.73;;;0.73;;
65552;SDS011;52465;51.560;14.368;2022-09-09T07:08:57;0.80;;;0.73;;
65552;SDS011;52465;51.560;14.368;2022-09-09T07:11:25;1.10;;;0.75;;
65552;SDS011;52465;51.560;14.368;2022-09-09T07:13:52;0.70;;;0.70;;
65552;SDS011;52465;51.560;14.368;2022-09-09T07:16:18;2.38;;;0.80;;
65552;SDS011;52465;51.560;14.368;2022-09-09T07:18:45;1.55;;;0.70;;
65552;SDS011;52465;51.560;14.368;2022-09-09T07:21:12;0.70;;;0.70;;
65552;SDS011;52465;51.560;14.368;2022-09-09T07:23:39;1.35;;;0.77;;
65552;SDS011;52465;51.560;14.368;2022-09-09T07:26:09;2.67;;;0.80;;
65552;SDS011;52465;51.560;14.368;2022-09-09T07:28:36;0.88;;;0.80;;
65552;SDS011;52465;51.560;14.368;2022-09-09T07:31:02;0.70;;;0.70;;
65552;SDS011;52465;51.560;14.368;2022-09-09T07:33:28;0.98;;;0.90;;
65552;SDS011;52465;51.560;14.368;2022-09-09T07:36:03;2.15;;;0.80;;
65552;SDS011;52465;51.560;14.368;2022-09-09T07:38:32;1.52;;;0.77;;
65552;SDS011;52465;51.560;14.368;2022-09-09T07:41:05;1.48;;;0.73;;
65552;SDS011;52465;51.560;14.368;2022-09-09T07:43:33;0.82;;;0.80;;
65552;SDS011;52465;51.560;14.368;2022-09-09T07:45:59;1.05;;;0.70;;
65552;SDS011;52465;51.560;14.368;2022-09-09T07:48:26;1.00;;;0.70;;
65552;SDS011;52465;51.560;14.368;2022-09-09T07:50:51;0.63;;;0.60;;
65552;SDS011;52465;51.560;14.368;2022-09-09T07:53:17;0.70;;;0.70;;
65552;SDS011;52465;51.560;14.368;2022-09-09T07:55:44;1.27;;;0.80;;
65552;SDS011;52465;51.560;14.368;2022-09-09T07:58:10;0.80;;;0.77;;
65552;SDS011;52465;51.560;14.368;2022-09-09T08:00:38;1.58;;;0.70;;
65552;SDS011;52465;51.560;14.368;2022-09-09T08:03:08;1.05;;;0.77;;
65552;SDS011;52465;51.560;14.368;2022-09-09T08:05:33;1.50;;;0.93;;
65552;SDS011;52465;51.560;14.368;2022-09-09T08:08:01;0.75;;;0.75;;
65552;SDS011;52465;51.560;14.368;2022-09-09T08:10:28;0.70;;;0.60;;
65552;SDS011;52465;51.560;14.368;2022-09-09T08:12:53;1.92;;;0.80;;
65552;SDS011;52465;51.560;14.368;2022-09-09T08:15:20;0.70;;;0.70;;
65552;SDS011;52465;51.560;14.368;2022-09-09T08:17:45;0.70;;;0.70;;
65552;SDS011;52465;51.560;14.368;2022-09-09T08:20:10;1.05;;;0.80;;
65552;SDS011;52465;51.560;14.368;2022-09-09T08:22:36;1.27;;;0.65;;
65552;SDS011;52465;51.560;14.368;2022-09-09T08:25:02;1.38;;;0.80;;
65552;SDS011;52465;51.560;14.368;2022-09-09T08:27:31;0.93;;;0.80;;
65552;SDS011;52465;51.560;14.368;2022-09-09T08:29:57;0.60;;;0.60;;
65552;SDS011;52465;51.560;14.368;2022-09-09T08:32:22;0.73;;;0.73;;
65552;SDS011;52465;51.560;14.368;2022-09-09T08:34:47;1.00;;;0.60;;
65552;SDS011;52465;51.560;14.368;2022-09-09T08:37:14;0.77;;;0.60;;
65552;SDS011;52465;51.560;14.368;2022-09-09T08:39:40;0.60;;;0.60;;
65552;SDS011;52465;51.560;14.368;2022-09-09T08:42:09;0.60;;;0.60;;
65552;SDS011;52465;51.560;14.368;2022-09-09T08:47:36;0.80;;;0.80;;
65552;SDS011;52465;51.560;14.368;2022-09-09T08:50:15;0.60;;;0.60;;
65552;SDS011;52465;51.560;14.368;2022-09-09T08:53:03;1.15;;;0.75;;
65552;SDS011;52465;51.560;14.368;2022-09-09T08:55:40;0.63;;;0.63;;
65552;SDS011;52465;51.560;14.368;2022-09-09T08:58:12;0.60;;;0.60;;
65552;SDS011;52465;51.560;14.368;2022-09-09T09:06:09;0.60;;;0.60;;
65552;SDS011;52465;51.560;14.368;2022-09-09T09:11:23;0.65;;;0.65;;
65552;SDS011;52465;51.560;14.368;2022-09-09T09:16:32;1.90;;;0.60;;
65552;SDS011;52465;51.560;14.368;2022-09-09T09:19:01;1.30;;;0.80;;
65552;SDS011;52465;51.560;14.368;2022-09-09T09:21:48;1.75;;;0.70;;
65552;SDS011;52465;51.560;14.368;2022-09-09T09:29:57;0.98;;;0.57;;
65552;SDS011;52465;51.560;14.368;2022-09-09T09:32:25;0.98;;;0.60;;
65552;SDS011;52465;51.560;14.368;2022-09-09T09:37:26;1.90;;;0.60;;
65552;SDS011;52465;51.560;14.368;2022-09-09T09:39:54;0.65;;;0.60;;
65552;SDS011;52465;51.560;14.368;2022-09-09T09:42:19;0.95;;;0.80;;
65552;SDS011;52465;51.560;14.368;2022-09-09T09:44:45;1.60;;;0.70;;
65552;SDS011;52465;51.560;14.368;2022-09-09T09:47:12;1.15;;;0.70;;
65552;SDS011;52465;51.560;14.368;2022-09-09T09:49:39;1.63;;;0.73;;
65552;SDS011;52465;51.560;14.368;2022-09-09T09:52:16;0.70;;;0.70;;
65552;SDS011;52465;51.560;14.368;2022-09-09T09:54:47;0.63;;;0.63;;
65552;SDS011;52465;51.560;14.368;2022-09-09T09:57:13;0.60;;;0.60;;
65552;SDS011;52465;51.560;14.368;2022-09-09T09:59:41;0.77;;;0.60;;
65552;SDS011;52465;51.560;14.368;2022-09-09T10:02:14;1.13;;;0.70;;
65552;SDS011;52465;51.560;14.368;2022-09-09T10:04:40;0.70;;;0.70;;
65552;SDS011;52465;51.560;14.368;2022-09-09T10:07:17;1.25;;;0.80;;
65552;SDS011;52465;51.560;14.368;2022-09-09T10:09:53;1.58;;;0.80;;
65552;SDS011;52465;51.560;14.368;2022-09-09T10:12:24;0.63;;;0.63;;
65552;SDS011;52465;51.560;14.368;2022-09-09T10:15:22;1.95;;;0.70;;
65552;SDS011;52465;51.560;14.368;2022-09-09T10:18:17;0.80;;;0.80;;
65552;SDS011;52465;51.560;14.368;2022-09-09T10:24:00;0.60;;;0.60;;
65552;SDS011;52465;51.560;14.368;2022-09-09T10:26:48;0.80;;;0.80;;
65552;SDS011;52465;51.560;14.368;2022-09-09T10:29:29;1.40;;;0.65;;
65552;SDS011;52465;51.560;14.368;2022-09-09T10:35:21;0.93;;;0.70;;
65552;SDS011;52465;51.560;14.368;2022-09-09T10:48:35;1.25;;;0.70;;
65552;SDS011;52465;51.560;14.368;2022-09-09T10:51:19;0.60;;;0.60;;
65552;SDS011;52465;51.560;14.368;2022-09-09T10:56:40;0.63;;;0.63;;
65552;SDS011;52465;51.560;14.368;2022-09-09T10:59:29;0.63;;;0.63;;
65552;SDS011;52465;51.560;14.368;2022-09-09T11:02:02;0.68;;;0.68;;
65552;SDS011;52465;51.560;14.368;2022-09-09T11:04:45;0.68;;;0.60;;
65552;SDS011;52465;51.560;14.368;2022-09-09T11:07:21;1.40;;;0.75;;
65552;SDS011;52465;51.560;14.368;2022-09-09T11:09:54;0.60;;;0.60;;
65552;SDS011;52465;51.560;14.368;2022-09-09T11:12:25;1.27;;;0.65;;
65552;SDS011;52465;51.560;14.368;2022-09-09T11:14:57;0.80;;;0.70;;
65552;SDS011;52465;51.560;14.368;2022-09-09T11:17:28;1.02;;;0.65;;
65552;SDS011;52465;51.560;14.368;2022-09-09T11:20:12;1.98;;;0.65;;
65552;SDS011;52465;51.560;14.368;2022-09-09T11:22:40;1.00;;;0.60;;
65552;SDS011;52465;51.560;14.368;2022-09-09T11:25:19;0.98;;;0.88;;
65552;SDS011;52465;51.560;14.368;2022-09-09T11:30:45;0.82;;;0.60;;
65552;SDS011;52465;51.560;14.368;2022-09-09T11:36:52;0.98;;;0.50;;
65552;SDS011;52465;51.560;14.368;2022-09-09T11:42:05;0.73;;;0.73;;
65552;SDS011;52465;51.560;14.368;2022-09-09T11:44:32;0.63;;;0.63;;
65552;SDS011;52465;51.560;14.368;2022-09-09T11:46:57;1.15;;;0.50;;
65552;SDS011;52465;51.560;14.368;2022-09-09T11:49:40;0.50;;;0.50;;
65552;SDS011;52465;51.560;14.368;2022-09-09T11:52:23;0.63;;;0.60;;
65552;SDS011;52465;51.560;14.368;2022-09-09T11:55:09;0.60;;;0.60;;
65552;SDS011;52465;51.560;14.368;2022-09-09T11:57:37;1.02;;;0.63;;
65552;SDS011;52465;51.560;14.368;2022-09-09T12:00:04;0.70;;;0.60;;
65552;SDS011;52465;51.560;14.368;2022-09-09T12:02:30;0.60;;;0.60;;
65552;SDS011;52465;51.560;14.368;2022-09-09T12:05:06;0.50;;;0.50;;
65552;SDS011;52465;51.560;14.368;2022-09-09T12:07:36;0.60;;;0.60;;
65552;SDS011;52465;51.560;14.368;2022-09-09T12:12:34;0.60;;;0.52;;
65552;SDS011;52465;51.560;14.368;2022-09-09T12:17:36;1.08;;;0.60;;
65552;SDS011;52465;51.560;14.368;2022-09-09T12:20:18;0.95;;;0.43;;
65552;SDS011;52465;51.560;14.368;2022-09-09T12:34:15;1.27;;;0.55;;
65552;SDS011;52465;51.560;14.368;2022-09-09T12:39:16;0.50;;;0.50;;
65552;SDS011;52465;51.560;14.368;2022-09-09T12:41:55;0.57;;;0.57;;
65552;SDS011;52465;51.560;14.368;2022-09-09T12:44:22;0.50;;;0.50;;
65552;SDS011;52465;51.560;14.368;2022-09-09T12:46:48;1.02;;;0.60;;
65552;SDS011;52465;51.560;14.368;2022-09-09T12:49:29;3.13;;;0.80;;
65552;SDS011;52465;51.560;14.368;2022-09-09T12:52:02;4.70;;;0.70;;
65552;SDS011;52465;51.560;14.368;2022-09-09T12:54:31;0.90;;;0.60;;
65552;SDS011;52465;51.560;14.368;2022-09-09T12:59:34;1.02;;;0.65;;
65552;SDS011;52465;51.560;14.368;2022-09-09T13:02:01;2.40;;;0.65;;
65552;SDS011;52465;51.560;14.368;2022-09-09T13:04:26;2.20;;;0.68;;
65552;SDS011;52465;51.560;14.368;2022-09-09T13:06:52;1.40;;;0.55;;
65552;SDS011;52465;51.560;14.368;2022-09-09T13:09:18;1.70;;;0.73;;
65552;SDS011;52465;51.560;14.368;2022-09-09T13:11:46;0.85;;;0.50;;
65552;SDS011;52465;51.560;14.368;2022-09-09T13:14:16;1.05;;;0.60;;
65552;SDS011;52465;51.560;14.368;2022-09-09T13:16:54;0.70;;;0.60;;
65552;SDS011;52465;51.560;14.368;2022-09-09T13:19:33;0.98;;;0.50;;
65552;SDS011;52465;51.560;14.368;2022-09-09T13:22:14;3.22;;;0.50;;
65552;SDS011;52465;51.560;14.368;2022-09-09T13:24:59;1.77;;;0.60;;
65552;SDS011;52465;51.560;14.368;2022-09-09T13:27:39;0.45;;;0.40;;
65552;SDS011;52465;51.560;14.368;2022-09-09T13:30:21;1.65;;;0.60;;
65552;SDS011;52465;51.560;14.368;2022-09-09T13:35:54;1.92;;;0.60;;
65552;SDS011;52465;51.560;14.368;2022-09-09T13:38:21;1.17;;;0.65;;
65552;SDS011;52465;51.560;14.368;2022-09-09T13:41:03;1.60;;;0.60;;
65552;SDS011;52465;51.560;14.368;2022-09-09T13:43:31;2.05;;;0.68;;
65552;SDS011;52465;51.560;14.368;2022-09-09T13:46:00;3.00;;;0.65;;
65552;SDS011;52465;51.560;14.368;2022-09-09T13:48:27;2.85;;;0.60;;
65552;SDS011;52465;51.560;14.368;2022-09-09T13:50:53;2.47;;;0.80;;
65552;SDS011;52465;51.560;14.368;2022-09-09T13:53:20;2.15;;;1.00;;
65552;SDS011;52465;51.560;14.368;2022-09-09T13:55:45;2.00;;;0.90;;
65552;SDS011;52465;51.560;14.368;2022-09-09T13:58:14;2.88;;;0.85;;
65552;SDS011;52465;51.560;14.368;2022-09-09T14:00:41;3.00;;;1.13;;
65552;SDS011;52465;51.560;14.368;2022-09-09T14:03:08;1.67;;;0.80;;
65552;SDS011;52465;51.560;14.368;2022-09-09T14:05:35;2.20;;;0.95;;
65552;SDS011;52465;51.560;14.368;2022-09-09T14:08:00;4.10;;;1.30;;
65552;SDS011;52465;51.560;14.368;2022-09-09T14:10:29;3.10;;;0.95;;
65552;SDS011;52465;51.560;14.368;2022-09-09T14:12:55;4.07;;;1.25;;
65552;SDS011;52465;51.560;14.368;2022-09-09T14:15:20;3.13;;;0.88;;
65552;SDS011;52465;51.560;14.368;2022-09-09T14:17:46;3.70;;;1.13;;
65552;SDS011;52465;51.560;14.368;2022-09-09T14:20:13;5.70;;;1.25;;
65552;SDS011;52465;51.560;14.368;2022-09-09T14:22:40;2.88;;;1.10;;
65552;SDS011;52465;51.560;14.368;2022-09-09T14:25:05;1.88;;;1.05;;
65552;SDS011;52465;51.560;14.368;2022-09-09T14:27:31;3.60;;;1.10;;
65552;SDS011;52465;51.560;14.368;2022-09-09T14:29:57;1.75;;;1.05;;
65552;SDS011;52465;51.560;14.368;2022-09-09T14:32:24;2.03;;;0.98;;
65552;SDS011;52465;51.560;14.368;2022-09-09T14:34:50;4.22;;;1.15;;
65552;SDS011;52465;51.560;14.368;2022-09-09T14:37:16;4.45;;;1.20;;
65552;SDS011;52465;51.560;14.368;2022-09-09T14:39:42;3.65;;;1.20;;
65552;SDS011;52465;51.560;14.368;2022-09-09T14:42:12;1.25;;;0.80;;
65552;SDS011;52465;51.560;14.368;2022-09-09T14:44:37;3.97;;;1.00;;
65552;SDS011;52465;51.560;14.368;2022-09-09T14:47:03;1.30;;;1.02;;
65552;SDS011;52465;51.560;14.368;2022-09-09T14:49:29;0.93;;;0.60;;
65552;SDS011;52465;51.560;14.368;2022-09-09T14:51:54;1.73;;;1.05;;
65552;SDS011;52465;51.560;14.368;2022-09-09T14:54:20;2.00;;;1.20;;
65552;SDS011;52465;51.560;14.368;2022-09-09T14:56:47;1.77;;;1.00;;
65552;SDS011;52465;51.560;14.368;2022-09-09T14:59:12;2.85;;;1.20;;
65552;SDS011;52465;51.560;14.368;2022-09-09T15:01:38;1.60;;;0.73;;
65552;SDS011;52465;51.560;14.368;2022-09-09T15:04:04;1.63;;;0.90;;
65552;SDS011;52465;51.560;14.368;2022-09-09T15:06:30;1.20;;;0.90;;
65552;SDS011;52465;51.560;14.368;2022-09-09T15:09:02;5.35;;;1.08;;
65552;SDS011;52465;51.560;14.368;2022-09-09T15:11:28;1.75;;;1.00;;
65552;SDS011;52465;51.560;14.368;2022-09-09T15:13:55;3.47;;;0.88;;
65552;SDS011;52465;51.560;14.368;2022-09-09T15:16:23;1.83;;;0.98;;
65552;SDS011;52465;51.560;14.368;2022-09-09T15:18:50;1.70;;;0.90;;
65552;SDS011;52465;51.560;14.368;2022-09-09T15:21:18;1.95;;;0.82;;
65552;SDS011;52465;51.560;14.368;2022-09-09T15:23:45;2.13;;;0.80;;
65552;SDS011;52465;51.560;14.368;2022-09-09T15:26:10;2.30;;;1.20;;
65552;SDS011;52465;51.560;14.368;2022-09-09T15:28:39;2.72;;;1.08;;
65552;SDS011;52465;51.560;14.368;2022-09-09T15:31:05;3.33;;;0.90;;
65552;SDS011;52465;51.560;14.368;2022-09-09T15:33:32;1.73;;;0.60;;
65552;SDS011;52465;51.560;14.368;2022-09-09T15:35:58;0.80;;;0.80;;
65552;SDS011;52465;51.560;14.368;2022-09-09T15:38:24;1.60;;;0.77;;
65552;SDS011;52465;51.560;14.368;2022-09-09T15:40:53;1.38;;;0.85;;
65552;SDS011;52465;51.560;14.368;2022-09-09T15:43:19;1.83;;;0.82;;
65552;SDS011;52465;51.560;14.368;2022-09-09T15:45:45;0.95;;;0.70;;
65552;SDS011;52465;51.560;14.368;2022-09-09T15:48:13;1.55;;;0.75;;
65552;SDS011;52465;51.560;14.368;2022-09-09T15:50:39;1.05;;;0.80;;
65552;SDS011;52465;51.560;14.368;2022-09-09T15:53:04;2.03;;;0.70;;
65552;SDS011;52465;51.560;14.368;2022-09-09T15:55:31;0.95;;;0.70;;
65552;SDS011;52465;51.560;14.368;2022-09-09T15:57:56;1.58;;;1.00;;
65552;SDS011;52465;51.560;14.368;2022-09-09T16:00:22;1.10;;;0.70;;
65552;SDS011;52465;51.560;14.368;2022-09-09T16:02:48;1.40;;;0.80;;
65552;SDS011;52465;51.560;14.368;2022-09-09T16:05:13;3.75;;;0.80;;
65552;SDS011;52465;51.560;14.368;2022-09-09T16:07:38;2.15;;;1.00;;
65552;SDS011;52465;51.560;14.368;2022-09-09T16:10:04;2.35;;;0.90;;
65552;SDS011;52465;51.560;14.368;2022-09-09T16:12:30;1.90;;;1.27;;
65552;SDS011;52465;51.560;14.368;2022-09-09T16:14:55;1.33;;;0.70;;
65552;SDS011;52465;51.560;14.368;2022-09-09T16:17:21;1.45;;;0.75;;
65552;SDS011;52465;51.560;14.368;2022-09-09T16:19:46;0.80;;;0.70;;
65552;SDS011;52465;51.560;14.368;2022-09-09T16:22:11;2.40;;;0.60;;
65552;SDS011;52465;51.560;14.368;2022-09-09T16:24:37;1.83;;;0.70;;
65552;SDS011;52465;51.560;14.368;2022-09-09T16:27:03;2.60;;;0.90;;
65552;SDS011;52465;51.560;14.368;2022-09-09T16:29:28;2.13;;;0.98;;
65552;SDS011;52465;51.560;14.368;2022-09-09T16:31:54;0.77;;;0.60;;
65552;SDS011;52465;51.560;14.368;2022-09-09T16:34:19;0.70;;;0.70;;